sensor_id;sensor_type;location;lat;lon;timestamp;temperature;humidity
43528;DHT22;52359;42.658;23.320;2023-10-19T07:45:06;12.60;99.90
43528;DHT22;52359;42.658;23.320;2023-10-19T07:47:35;12.40;99.90
43528;DHT22;52359;42.658;23.320;2023-10-19T07:50:01;12.20;99.90
43528;DHT22;52359;42.658;23.320;2023-10-19T07:52:28;12.10;99.90
43528;DHT22;52359;42.658;23.320;2023-10-19T07:54:54;12.20;99.90
43528;DHT22;52359;42.658;23.320;2023-10-19T07:57:20;12.30;99.90
43528;DHT22;52359;42.658;23.320;2023-10-19T07:59:46;12.70;99.90
43528;DHT22;52359;42.658;23.320;2023-10-19T08:02:13;13.10;99.90
43528;DHT22;52359;42.658;23.320;2023-10-19T08:04:38;13.60;99.90
43528;DHT22;52359;42.658;23.320;2023-10-19T08:07:04;14.10;99.90
43528;DHT22;52359;42.658;23.320;2023-10-19T08:09:30;14.10;99.90
43528;DHT22;52359;42.658;23.320;2023-10-19T08:12:00;14.70;99.90
43528;DHT22;52359;42.658;23.320;2023-10-19T08:14:27;14.90;99.90
43528;DHT22;52359;42.658;23.320;2023-10-19T08:16:53;15.00;99.90
43528;DHT22;52359;42.658;23.320;2023-10-19T08:19:19;15.20;99.90
43528;DHT22;52359;42.658;23.320;2023-10-19T08:21:45;15.20;99.90
43528;DHT22;52359;42.658;23.320;2023-10-19T08:24:11;15.40;99.90
43528;DHT22;52359;42.658;23.320;2023-10-19T08:26:43;15.60;99.90
43528;DHT22;52359;42.658;23.320;2023-10-19T08:29:11;15.70;99.90
43528;DHT22;52359;42.658;23.320;2023-10-19T08:31:43;16.00;99.90
43528;DHT22;52359;42.658;23.320;2023-10-19T08:34:11;16.10;99.90
43528;DHT22;52359;42.658;23.320;2023-10-19T08:36:37;16.60;99.90
43528;DHT22;52359;42.658;23.320;2023-10-19T08:41:35;17.40;99.90
43528;DHT22;52359;42.658;23.320;2023-10-19T08:44:06;18.00;99.90
43528;DHT22;52359;42.658;23.320;2023-10-19T08:51:37;18.90;98.90
43528;DHT22;52359;42.658;23.320;2023-10-19T13:03:09;26.70;74.30
43528;DHT22;52359;42.658;23.320;2023-10-19T13:05:40;26.50;73.50
43528;DHT22;52359;42.658;23.320;2023-10-19T13:08:10;26.60;72.80
43528;DHT22;52359;42.658;23.320;2023-10-19T13:10:39;26.70;73.30
43528;DHT22;52359;42.658;23.320;2023-10-19T13:13:08;26.70;74.60
43528;DHT22;52359;42.658;23.320;2023-10-19T13:15:38;26.50;74.50
43528;DHT22;52359;42.658;23.320;2023-10-19T13:33:22;25.80;75.10
43528;DHT22;52359;42.658;23.320;2023-10-19T13:35:50;25.30;76.40
43528;DHT22;52359;42.658;23.320;2023-10-19T14:12:47;23.60;78.80
43528;DHT22;52359;42.658;23.320;2023-10-19T14:15:18;23.70;77.20
43528;DHT22;52359;42.658;23.320;2023-10-19T14:17:46;23.30;78.00
43528;DHT22;52359;42.658;23.320;2023-10-19T14:20:12;23.30;83.60
43528;DHT22;52359;42.658;23.320;2023-10-19T14:39:45;22.50;80.10
43528;DHT22;52359;42.658;23.320;2023-10-19T14:42:11;22.50;81.40
43528;DHT22;52359;42.658;23.320;2023-10-19T15:40:49;19.90;84.60
43528;DHT22;52359;42.658;23.320;2023-10-19T15:43:15;20.00;86.70
43528;DHT22;52359;42.658;23.320;2023-10-19T15:45:41;19.80;89.00
43528;DHT22;52359;42.658;23.320;2023-10-19T15:48:10;19.50;90.60
43528;DHT22;52359;42.658;23.320;2023-10-19T15:50:39;19.40;91.90
43528;DHT22;52359;42.658;23.320;2023-10-19T15:53:08;19.10;93.00
43528;DHT22;52359;42.658;23.320;2023-10-19T15:55:35;18.90;94.60
43528;DHT22;52359;42.658;23.320;2023-10-19T15:58:01;18.90;95.50
43528;DHT22;52359;42.658;23.320;2023-10-19T16:00:27;18.70;94.40
43528;DHT22;52359;42.658;23.320;2023-10-19T16:02:53;18.70;94.30
43528;DHT22;52359;42.658;23.320;2023-10-19T16:05:19;18.60;94.70
43528;DHT22;52359;42.658;23.320;2023-10-19T16:07:45;18.70;94.80
43528;DHT22;52359;42.658;23.320;2023-10-19T16:10:11;18.60;94.80
43528;DHT22;52359;42.658;23.320;2023-10-19T16:12:41;18.60;94.50
43528;DHT22;52359;42.658;23.320;2023-10-19T16:15:10;18.50;94.60
43528;DHT22;52359;42.658;23.320;2023-10-19T16:17:40;18.20;95.10
43528;DHT22;52359;42.658;23.320;2023-10-19T16:20:08;18.00;96.80
43528;DHT22;52359;42.658;23.320;2023-10-19T17:58:04;15.90;99.90
43528;DHT22;52359;42.658;23.320;2023-10-19T18:17:38;15.50;99.90
43528;DHT22;52359;42.658;23.320;2023-10-19T18:20:05;15.50;99.90
43528;DHT22;52359;42.658;23.320;2023-10-19T18:22:34;15.40;99.90
43528;DHT22;52359;42.658;23.320;2023-10-19T18:25:01;15.40;99.90
43528;DHT22;52359;42.658;23.320;2023-10-19T18:27:28;15.30;99.90
43528;DHT22;52359;42.658;23.320;2023-10-19T18:29:54;15.20;99.90
43528;DHT22;52359;42.658;23.320;2023-10-19T18:32:20;15.30;99.90
43528;DHT22;52359;42.658;23.320;2023-10-19T18:34:45;15.10;99.90
43528;DHT22;52359;42.658;23.320;2023-10-19T18:37:11;15.10;99.90
43528;DHT22;52359;42.658;23.320;2023-10-19T18:39:36;15.10;99.90
43528;DHT22;52359;42.658;23.320;2023-10-19T18:42:02;15.10;99.90
43528;DHT22;52359;42.658;23.320;2023-10-19T19:06:33;14.70;99.90
43528;DHT22;52359;42.658;23.320;2023-10-19T19:08:59;14.80;99.90
43528;DHT22;52359;42.658;23.320;2023-10-19T19:11:25;14.90;99.90
43528;DHT22;52359;42.658;23.320;2023-10-19T19:13:50;14.90;99.90
43528;DHT22;52359;42.658;23.320;2023-10-19T19:16:16;14.80;99.90
43528;DHT22;52359;42.658;23.320;2023-10-19T19:18:43;14.70;99.90
43528;DHT22;52359;42.658;23.320;2023-10-19T19:21:09;14.80;99.90
43528;DHT22;52359;42.658;23.320;2023-10-19T19:23:39;14.70;99.90
43528;DHT22;52359;42.658;23.320;2023-10-19T19:26:06;14.80;99.90
43528;DHT22;52359;42.658;23.320;2023-10-19T19:28:33;14.80;99.90
43528;DHT22;52359;42.658;23.320;2023-10-19T19:31:02;14.80;99.90
43528;DHT22;52359;42.658;23.320;2023-10-19T19:33:28;14.70;99.90
43528;DHT22;52359;42.658;23.320;2023-10-19T19:35:54;14.80;99.90
